首页
METAR-TAF:

METAR-TAF

机场 :

布拉格瓦茨拉夫·哈維爾國際機場

布拉格, 捷克共和国

纬度: 50-06N, 经度: 014-15E, 海拔: 365米

当前天气观测

该预报发布于23分钟前的19:00 UTC
风速3节,风向东转东南,在东南之间变化
温度 -1°C
湿度 100%
气压 1020 hPa
能見度: 4500
轻雾

METAR: LKPR 171900Z 12003KT 080V140 4500 BR NSC M01/M01 Q1020 NOSIG

时间: 20:23 (19:23 UTC)

预报

该预报发布于2小时和23分钟前的17:00 UTC
预报有效从17日的 18点(UTC)到 19日的 00点(UTC)
风速6节,风向南转西南
能見度: 4000
散云层高于400英尺
多云层高于2500英尺
轻雾
短暂存在
从 17日的 18点(UTC)到 18日的 00点(UTC)
能見度: 2500
多云层高于400英尺
轻雾
几率 30% :
短暂存在
从 17日的 18点(UTC)到 18日的 00点(UTC)
能見度: 6000
散云层高于2500英尺
成为
从 18日的 00点(UTC)到 18日的 03点(UTC)
多云层高于1400英尺
短暂存在
从 18日的 04点(UTC)到 18日的 11点(UTC)
能見度: 1400
多云层高于900英尺
雨, 雪
几率 30% :
短暂存在
从 18日的 04点(UTC)到 18日的 08点(UTC)
多云层高于400英尺
冻雨, 雪
成为
从 18日的 11点(UTC)到 18日的 13点(UTC)
能见度10公里或以上
多云层高于2000英尺

TAF: LKPR 171700Z 1718/1900 20006KT 4000 BR SCT004 BKN025 TEMPO 1718/1800 2500 BR BKN004 PROB30 TEMPO 1718/1800 6000 SCT025 BECMG 1800/1803 BKN014 TEMPO 1804/1811 1400 RASN BKN009 PROB30 TEMPO 1804/1808 FZRASN BKN004 BECMG 1811/1813 9999 BKN020

超过4000个机场的气象观测和天气预报(METAR&TAF报告)。

可查询的气象台以黄色和红色小点在地图上表示。

将鼠标移到小点上方,可查看气象台名称。

然后点击查看天气观测和预报。

如需切换地图:点击带黑十字的绿色按钮放大地图;点击带横线的绿色按钮缩小地图;或者点击绿色箭头查看邻近地区的地图。


METAR-TAF: